createdAt,value
2022-10-21T00:00:32.230Z,11.94
2022-10-21T00:01:32.277Z,12.04
2022-10-21T00:02:32.208Z,12.03
2022-10-21T00:03:32.202Z,11.97
2022-10-21T00:04:32.203Z,11.87
2022-10-21T00:05:32.184Z,11.88
2022-10-21T00:06:32.209Z,11.87
2022-10-21T00:07:32.168Z,12.02
2022-10-21T00:08:32.203Z,11.97
2022-10-21T00:09:32.153Z,12.07
2022-10-21T00:10:32.187Z,12.06
2022-10-21T00:11:32.160Z,12.07
2022-10-21T00:12:32.130Z,11.97
2022-10-21T00:13:32.124Z,11.97
2022-10-21T00:14:32.117Z,12.00
2022-10-21T00:15:32.107Z,11.99
2022-10-21T00:16:32.122Z,11.95
2022-10-21T00:17:32.095Z,12.10
2022-10-21T00:18:32.107Z,12.07
2022-10-21T00:19:32.075Z,12.04
2022-10-21T00:20:33.747Z,11.94
2022-10-21T00:21:32.084Z,11.95
2022-10-21T00:22:32.052Z,12.07
2022-10-21T00:23:32.042Z,12.13
2022-10-21T00:24:32.033Z,12.15
2022-10-21T00:25:32.025Z,12.13
2022-10-21T00:26:35.021Z,12.10
2022-10-21T00:27:34.009Z,12.10
2022-10-21T00:28:32.008Z,12.09
2022-10-21T00:29:32.003Z,12.04
2022-10-21T00:30:31.990Z,12.15
2022-10-21T00:31:32.008Z,12.17
2022-10-21T00:32:31.971Z,12.12
2022-10-21T00:33:31.966Z,12.13
2022-10-21T00:34:31.957Z,12.06
2022-10-21T00:35:31.953Z,12.17
2022-10-21T00:36:31.973Z,12.15
2022-10-21T00:37:31.932Z,12.18
2022-10-21T00:38:31.924Z,12.10
2022-10-21T00:39:31.913Z,12.20
2022-10-21T00:40:31.912Z,12.21
2022-10-21T00:41:31.936Z,12.15
2022-10-21T00:42:31.891Z,12.09
2022-10-21T00:43:31.884Z,12.13
2022-10-21T00:44:31.875Z,12.15
2022-10-21T00:45:32.868Z,12.00
2022-10-21T00:46:31.862Z,12.09
2022-10-21T00:47:31.883Z,12.17
2022-10-21T00:48:31.851Z,11.99
2022-10-21T00:49:31.842Z,12.10
2022-10-21T00:50:31.832Z,12.04
2022-10-21T00:51:31.824Z,12.02
2022-10-21T00:52:31.845Z,12.06
2022-10-21T00:53:31.808Z,12.06
2022-10-21T00:54:31.799Z,12.13
2022-10-21T00:55:31.793Z,12.13
2022-10-21T00:56:31.780Z,12.06
2022-10-21T00:57:31.792Z,12.12
2022-10-21T00:58:32.836Z,12.09
2022-10-21T00:59:31.759Z,11.97
2022-10-21T01:00:31.752Z,12.09
2022-10-21T01:01:31.785Z,12.12
2022-10-21T01:02:31.760Z,12.00
2022-10-21T01:03:31.735Z,12.13
2022-10-21T01:04:31.718Z,12.12
2022-10-21T01:05:31.712Z,12.07
2022-10-21T01:06:31.711Z,12.10
2022-10-21T01:07:31.724Z,12.07
2022-10-21T01:08:31.753Z,12.13
2022-10-21T01:09:31.679Z,12.13
2022-10-21T01:10:31.674Z,12.15
2022-10-21T01:11:31.668Z,12.12
2022-10-21T01:12:31.691Z,12.13
2022-10-21T01:13:31.653Z,12.09
2022-10-21T01:14:31.645Z,12.22
2022-10-21T01:15:31.635Z,12.20
2022-10-21T01:16:31.625Z,12.27
2022-10-21T01:17:47.332Z,12.21
2022-10-21T01:18:33.609Z,12.27
2022-10-21T01:19:31.600Z,12.29
2022-10-21T01:20:31.596Z,12.31
2022-10-21T01:21:31.586Z,12.25
2022-10-21T01:22:31.605Z,12.24
2022-10-21T01:23:31.570Z,12.35
2022-10-21T01:24:31.565Z,12.35
2022-10-21T01:25:31.552Z,12.28
2022-10-21T01:26:31.546Z,12.28
2022-10-21T01:27:31.565Z,12.25
2022-10-21T01:28:31.533Z,12.32
2022-10-21T01:29:31.527Z,12.22
2022-10-21T01:30:31.519Z,12.25
2022-10-21T01:31:31.508Z,12.32
2022-10-21T01:32:31.527Z,12.27
2022-10-21T01:33:31.496Z,12.25
2022-10-21T01:34:31.484Z,12.18
2022-10-21T01:35:31.474Z,12.24
2022-10-21T01:36:31.471Z,12.27
2022-10-21T01:37:31.565Z,12.25
2022-10-21T01:38:31.453Z,12.18
2022-10-21T01:39:31.444Z,12.15
2022-10-21T01:40:31.438Z,12.12
2022-10-21T01:41:31.424Z,12.13
2022-10-21T01:42:31.445Z,12.15
2022-10-21T01:43:31.413Z,12.07
2022-10-21T01:44:31.408Z,12.20
2022-10-21T01:45:31.394Z,12.13
2022-10-21T01:46:31.388Z,12.15
2022-10-21T01:47:31.401Z,12.24
2022-10-21T01:48:31.367Z,12.22
2022-10-21T01:49:31.357Z,12.29
2022-10-21T01:50:31.353Z,12.28
2022-10-21T01:51:31.348Z,12.28
2022-10-21T01:52:31.362Z,12.36
2022-10-21T01:53:31.331Z,12.29
2022-10-21T01:54:31.324Z,12.32
2022-10-21T01:55:31.316Z,12.35
2022-10-21T01:56:31.309Z,12.45
2022-10-21T01:57:31.326Z,12.35
2022-10-21T01:58:31.302Z,12.42
2022-10-21T01:59:31.288Z,12.36
2022-10-21T02:00:31.287Z,12.32
2022-10-21T02:01:31.303Z,12.35
2022-10-21T02:02:31.288Z,12.24
2022-10-21T02:03:31.256Z,12.31
2022-10-21T02:04:31.251Z,12.40
2022-10-21T02:05:31.241Z,12.39
2022-10-21T02:06:31.235Z,12.39
2022-10-21T02:07:31.261Z,12.27
2022-10-21T02:08:31.296Z,12.31
2022-10-21T02:10:31.206Z,12.37
2022-10-21T02:11:31.207Z,12.36
2022-10-21T02:12:31.225Z,12.36
2022-10-21T02:13:31.188Z,12.35
2022-10-21T02:14:31.179Z,12.28
2022-10-21T02:15:31.172Z,12.35
2022-10-21T02:16:31.167Z,12.29
2022-10-21T02:17:31.188Z,12.29
2022-10-21T02:18:31.153Z,12.29
2022-10-21T02:20:31.140Z,12.31
2022-10-21T02:21:31.125Z,12.36
2022-10-21T02:22:31.116Z,12.37
2022-10-21T02:23:31.131Z,12.24
2022-10-21T02:24:31.097Z,12.36
2022-10-21T02:25:31.091Z,12.25
2022-10-21T02:26:31.082Z,12.24
2022-10-21T02:27:31.074Z,12.27
2022-10-21T02:28:31.175Z,12.29
2022-10-21T02:29:31.058Z,12.36
2022-10-21T02:30:31.054Z,12.29
2022-10-21T02:31:31.046Z,12.21
2022-10-21T02:32:31.067Z,12.22
2022-10-21T02:33:31.030Z,12.22
2022-10-21T02:34:31.027Z,12.17
2022-10-21T02:35:31.016Z,12.28
2022-10-21T02:36:31.010Z,12.20
2022-10-21T02:37:31.046Z,12.28
2022-10-21T02:38:30.995Z,12.28
2022-10-21T02:39:30.984Z,12.36
2022-10-21T02:40:30.978Z,12.32
2022-10-21T02:41:30.970Z,12.32
2022-10-21T02:42:30.990Z,12.32
2022-10-21T02:43:30.954Z,12.36
2022-10-21T02:44:30.947Z,12.43
2022-10-21T02:45:30.936Z,12.40
2022-10-21T02:46:30.936Z,12.39
2022-10-21T02:47:30.949Z,12.46
2022-10-21T02:48:30.916Z,12.46
2022-10-21T02:49:30.911Z,12.43
2022-10-21T02:50:30.903Z,12.45
2022-10-21T02:51:30.896Z,12.42
2022-10-21T02:52:30.913Z,12.40
2022-10-21T02:53:30.887Z,12.43
2022-10-21T02:54:30.870Z,12.49
2022-10-21T02:55:30.864Z,12.46
2022-10-21T02:56:30.901Z,12.36
2022-10-21T02:57:30.871Z,12.46
2022-10-21T02:58:30.844Z,12.42
2022-10-21T02:59:30.831Z,12.32
2022-10-21T03:00:32.865Z,12.36
2022-10-21T03:01:31.815Z,12.31
2022-10-21T03:02:30.838Z,12.22
2022-10-21T03:03:30.801Z,12.21
2022-10-21T03:04:30.788Z,12.24
2022-10-21T03:06:30.773Z,12.25
2022-10-21T03:07:30.796Z,12.09
2022-10-21T03:08:30.792Z,12.15
2022-10-21T03:09:30.779Z,11.97
2022-10-21T03:10:30.748Z,12.06
2022-10-21T03:11:30.736Z,12.09
2022-10-21T03:12:30.756Z,12.03
2022-10-21T03:13:30.715Z,12.00
2022-10-21T03:14:30.712Z,12.03
2022-10-21T03:15:30.701Z,12.00
2022-10-21T03:16:30.700Z,11.99
2022-10-21T03:17:30.687Z,11.88
2022-10-21T03:18:30.706Z,11.91
2022-10-21T03:19:30.673Z,11.94
2022-10-21T03:20:30.662Z,11.90
2022-10-21T03:21:30.650Z,11.90
2022-10-21T03:22:30.673Z,11.88
2022-10-21T03:23:30.635Z,11.83
2022-10-21T03:24:30.633Z,11.83
2022-10-21T03:25:35.065Z,11.90
2022-10-21T03:26:32.620Z,11.90
2022-10-21T03:28:30.605Z,11.84
2022-10-21T03:29:30.601Z,11.87
2022-10-21T03:30:30.590Z,12.07
2022-10-21T03:31:30.587Z,11.91
2022-10-21T03:32:30.597Z,11.94
2022-10-21T03:33:30.567Z,12.09
2022-10-21T03:34:30.556Z,12.04
2022-10-21T03:35:30.558Z,12.10
2022-10-21T03:36:30.549Z,12.15
2022-10-21T03:37:30.567Z,12.04
2022-10-21T03:38:30.529Z,12.17
2022-10-21T03:39:30.520Z,12.12
2022-10-21T03:40:31.517Z,12.09
2022-10-21T03:41:30.508Z,12.04
2022-10-21T03:42:30.534Z,12.17
2022-10-21T03:43:30.496Z,12.27
2022-10-21T03:44:30.491Z,12.28
2022-10-21T03:45:30.485Z,12.35
2022-10-21T03:46:30.485Z,12.32
2022-10-21T03:47:30.495Z,12.29
2022-10-21T03:48:30.465Z,12.32
2022-10-21T03:49:30.467Z,12.28
2022-10-21T03:50:30.443Z,12.31
2022-10-21T03:51:30.441Z,12.31
2022-10-21T03:52:30.460Z,12.32
2022-10-21T03:53:42.983Z,12.42
2022-10-21T03:54:32.416Z,12.36
2022-10-21T03:55:30.405Z,12.42
2022-10-21T03:56:30.403Z,12.46
2022-10-21T03:57:30.418Z,12.42
2022-10-21T03:58:30.389Z,12.39
2022-10-21T03:59:30.379Z,12.40
2022-10-21T04:00:31.709Z,12.37
2022-10-21T04:01:30.392Z,12.40
2022-10-21T04:02:30.379Z,12.46
2022-10-21T04:03:30.350Z,12.53
2022-10-21T04:04:30.344Z,12.50
2022-10-21T04:05:30.334Z,12.47
2022-10-21T04:06:30.335Z,12.58
2022-10-21T04:07:30.346Z,12.54
2022-10-21T04:08:30.340Z,12.47
2022-10-21T04:09:30.311Z,12.53
2022-10-21T04:10:30.299Z,12.54
2022-10-21T04:11:30.287Z,12.55
2022-10-21T04:12:30.307Z,12.60
2022-10-21T04:13:30.275Z,12.55
2022-10-21T04:14:30.264Z,12.58
2022-10-21T04:15:30.257Z,12.58
2022-10-21T04:16:30.250Z,12.64
2022-10-21T04:17:30.268Z,12.62
2022-10-21T04:18:30.231Z,12.55
2022-10-21T04:19:30.223Z,12.55
2022-10-21T04:20:30.218Z,12.57
2022-10-21T04:21:30.228Z,12.47
2022-10-21T04:22:30.225Z,12.49
2022-10-21T04:23:30.192Z,12.37
2022-10-21T04:24:30.182Z,12.42
2022-10-21T04:25:30.172Z,12.37
2022-10-21T04:26:30.165Z,12.36
2022-10-21T04:27:30.157Z,12.31
2022-10-21T04:28:30.176Z,12.24
2022-10-21T04:29:30.142Z,12.28
2022-10-21T04:30:30.137Z,12.21
2022-10-21T04:31:32.168Z,12.21
2022-10-21T04:32:30.143Z,12.17
2022-10-21T04:33:30.111Z,12.22
2022-10-21T04:34:30.104Z,12.35
2022-10-21T04:35:30.095Z,12.09
2022-10-21T04:36:30.086Z,12.00
2022-10-21T04:37:30.108Z,12.09
2022-10-21T04:38:30.078Z,12.00
2022-10-21T04:39:30.062Z,12.09
2022-10-21T04:40:30.055Z,12.03
2022-10-21T04:41:30.049Z,12.07
2022-10-21T04:42:30.087Z,12.06
2022-10-21T04:43:30.038Z,12.06
2022-10-21T04:44:30.029Z,12.03
2022-10-21T04:45:30.016Z,12.03
2022-10-21T04:46:30.014Z,12.03
2022-10-21T04:47:30.027Z,11.97
2022-10-21T04:48:30.000Z,11.90
2022-10-21T04:49:29.989Z,11.86
2022-10-21T04:50:29.976Z,11.86
2022-10-21T04:52:29.988Z,11.86
2022-10-21T04:53:29.960Z,11.77
2022-10-21T04:54:29.946Z,11.84
2022-10-21T04:55:29.935Z,11.77
2022-10-21T04:56:29.927Z,11.63
2022-10-21T04:57:29.946Z,11.55
2022-10-21T04:58:29.912Z,11.47
2022-10-21T04:59:29.917Z,11.59
2022-10-21T05:00:29.909Z,11.52
2022-10-21T05:01:29.990Z,11.55
2022-10-21T05:02:29.915Z,11.48
2022-10-21T05:03:29.876Z,11.37
2022-10-21T05:04:29.891Z,11.47
2022-10-21T05:05:29.860Z,11.51
2022-10-21T05:06:29.856Z,11.57
2022-10-21T05:07:29.887Z,11.57
2022-10-21T05:08:29.910Z,11.65
2022-10-21T05:09:29.834Z,11.51
2022-10-21T05:10:29.822Z,11.47
2022-10-21T05:11:29.820Z,11.54
2022-10-21T05:12:29.829Z,11.62
2022-10-21T05:13:29.831Z,11.62
2022-10-21T05:14:29.788Z,11.68
2022-10-21T05:15:29.788Z,11.48
2022-10-21T05:16:29.783Z,11.47
2022-10-21T05:17:29.771Z,11.59
2022-10-21T05:18:29.785Z,11.63
2022-10-21T05:19:31.348Z,11.62
2022-10-21T05:20:30.819Z,11.60
2022-10-21T05:21:29.787Z,11.57
2022-10-21T05:22:29.736Z,11.57
2022-10-21T05:23:29.776Z,11.62
2022-10-21T05:24:29.756Z,11.51
2022-10-21T05:25:31.856Z,11.54
2022-10-21T05:26:29.709Z,11.57
2022-10-21T05:27:29.728Z,11.48
2022-10-21T05:28:29.729Z,11.66
2022-10-21T05:29:29.679Z,11.57
2022-10-21T05:30:29.708Z,11.52
2022-10-21T05:31:29.677Z,11.50
2022-10-21T05:32:29.671Z,11.41
2022-10-21T05:33:29.674Z,11.43
2022-10-21T05:34:29.628Z,11.51
2022-10-21T05:35:29.634Z,11.59
2022-10-21T05:36:29.626Z,11.59
2022-10-21T05:37:29.615Z,11.54
2022-10-21T05:38:29.634Z,11.60
2022-10-21T05:39:29.671Z,11.63
2022-10-21T05:40:29.592Z,11.55
2022-10-21T05:41:29.618Z,11.63
2022-10-21T05:42:29.575Z,11.60
2022-10-21T05:43:29.595Z,11.65
2022-10-21T05:44:29.593Z,11.60
2022-10-21T05:45:29.549Z,11.63
2022-10-21T05:46:29.554Z,11.70
2022-10-21T05:47:29.553Z,11.55
2022-10-21T05:48:29.551Z,11.66
2022-10-21T05:49:29.552Z,11.63
2022-10-21T05:50:29.522Z,11.72
2022-10-21T05:51:29.500Z,11.68
2022-10-21T05:52:29.494Z,11.68
2022-10-21T05:53:29.519Z,11.57
2022-10-21T05:54:29.487Z,11.52
2022-10-21T05:55:29.480Z,11.50
2022-10-21T05:56:29.459Z,11.57
2022-10-21T05:57:29.479Z,11.59
2022-10-21T05:58:29.517Z,11.57
2022-10-21T05:59:29.445Z,11.51
2022-10-21T06:00:29.563Z,11.48
2022-10-21T06:01:29.535Z,11.44
2022-10-21T06:02:29.453Z,11.37
2022-10-21T06:03:29.446Z,11.41
2022-10-21T06:04:29.439Z,11.41
2022-10-21T06:05:29.384Z,11.54
2022-10-21T06:06:30.390Z,11.48
2022-10-21T06:07:29.393Z,11.41
2022-10-21T06:08:29.500Z,11.51
2022-10-21T06:09:29.397Z,11.35
2022-10-21T06:10:29.387Z,11.45
2022-10-21T06:11:29.351Z,11.45
2022-10-21T06:12:29.344Z,11.45
2022-10-21T06:13:29.348Z,11.50
2022-10-21T06:14:29.391Z,11.37
2022-10-21T06:15:29.324Z,11.33
2022-10-21T06:16:29.331Z,11.43
2022-10-21T06:17:29.320Z,11.40
2022-10-21T06:18:29.362Z,11.50
2022-10-21T06:19:29.290Z,11.36
2022-10-21T06:20:29.273Z,11.33
2022-10-21T06:21:29.267Z,11.37
2022-10-21T06:22:29.265Z,11.43
2022-10-21T06:23:29.299Z,11.47
2022-10-21T06:24:29.272Z,11.47
2022-10-21T06:25:29.270Z,11.44
2022-10-21T06:26:30.985Z,11.45
2022-10-21T06:27:29.249Z,11.59
2022-10-21T06:28:29.238Z,11.52
2022-10-21T06:29:29.273Z,11.57
2022-10-21T06:30:29.225Z,11.54
2022-10-21T06:31:29.224Z,11.63
2022-10-21T06:32:29.244Z,11.55
2022-10-21T06:33:29.208Z,11.70
2022-10-21T06:34:29.254Z,11.62
2022-10-21T06:35:29.178Z,11.65
2022-10-21T06:36:29.177Z,11.72
2022-10-21T06:37:29.168Z,11.86
2022-10-21T06:38:29.293Z,11.78
2022-10-21T06:39:29.158Z,11.84
2022-10-21T06:40:29.131Z,11.86
2022-10-21T06:41:29.146Z,11.88
2022-10-21T06:42:29.118Z,11.83
2022-10-21T06:43:29.220Z,11.94
2022-10-21T06:44:29.098Z,11.94
2022-10-21T06:45:29.091Z,11.97
2022-10-21T06:46:29.071Z,12.00
2022-10-21T06:47:29.099Z,12.03
2022-10-21T06:48:29.116Z,11.99
2022-10-21T06:49:29.065Z,12.06
2022-10-21T06:50:29.048Z,12.06
2022-10-21T06:51:29.072Z,11.95
2022-10-21T06:52:29.066Z,12.00
2022-10-21T06:53:29.064Z,12.02
2022-10-21T06:54:29.037Z,12.12
2022-10-21T06:55:29.013Z,12.07
2022-10-21T06:56:29.025Z,12.07
2022-10-21T06:57:28.998Z,11.97
2022-10-21T06:58:29.040Z,12.04
2022-10-21T06:59:28.984Z,12.06
2022-10-21T07:01:35.193Z,12.06
2022-10-21T07:02:29.976Z,12.03
2022-10-21T07:03:28.985Z,12.04
2022-10-21T07:04:28.939Z,12.07
2022-10-21T07:05:28.925Z,12.02
2022-10-21T07:06:29.049Z,12.00
2022-10-21T07:07:28.961Z,12.03
2022-10-21T07:08:46.322Z,12.06
2022-10-21T07:09:30.979Z,12.04
2022-10-21T07:10:28.884Z,12.03
2022-10-21T07:11:28.916Z,12.07
2022-10-21T07:12:28.868Z,12.20
2022-10-21T07:13:28.911Z,12.31
2022-10-21T07:14:28.864Z,12.27
2022-10-21T07:15:28.857Z,12.21
2022-10-21T07:16:28.864Z,12.24
2022-10-21T07:17:28.867Z,12.22
2022-10-21T07:18:28.852Z,12.35
2022-10-21T07:19:28.865Z,12.31
2022-10-21T07:20:28.831Z,12.39
2022-10-21T07:21:28.813Z,12.29
2022-10-21T07:22:28.809Z,12.45
2022-10-21T07:23:28.818Z,12.40
2022-10-21T07:24:28.786Z,12.46
2022-10-21T07:25:28.769Z,12.46
2022-10-21T07:26:28.781Z,12.47
2022-10-21T07:27:28.769Z,12.53
2022-10-21T07:28:28.817Z,12.53
2022-10-21T07:29:28.757Z,12.50
2022-10-21T07:30:28.740Z,12.58
2022-10-21T07:31:28.734Z,12.57
2022-10-21T07:32:28.736Z,12.60
2022-10-21T07:33:28.748Z,12.57
2022-10-21T07:34:28.710Z,12.60
2022-10-21T07:35:28.708Z,12.70
2022-10-21T07:36:28.689Z,12.79
2022-10-21T07:37:28.705Z,12.83
2022-10-21T07:38:28.709Z,12.62
2022-10-21T07:39:28.664Z,12.64
2022-10-21T07:40:28.660Z,12.62
2022-10-21T07:41:28.656Z,12.72
2022-10-21T07:42:28.660Z,12.78
2022-10-21T07:43:28.676Z,12.78
2022-10-21T07:44:28.665Z,12.79
2022-10-21T07:45:28.619Z,12.83
2022-10-21T07:46:28.640Z,12.90
2022-10-21T07:47:28.638Z,12.86
2022-10-21T07:48:28.623Z,12.94
2022-10-21T07:49:28.629Z,12.93
2022-10-21T07:50:28.577Z,12.75
2022-10-21T07:51:31.043Z,12.79
2022-10-21T07:52:28.559Z,12.93
2022-10-21T07:53:28.579Z,12.85
2022-10-21T07:54:28.579Z,12.93
2022-10-21T07:55:28.581Z,12.91
2022-10-21T07:56:28.548Z,13.03
2022-10-21T07:57:28.534Z,13.01
2022-10-21T07:58:28.545Z,12.94
2022-10-21T07:59:28.500Z,12.95
2022-10-21T08:00:28.497Z,13.01
2022-10-21T08:01:28.614Z,13.00
2022-10-21T08:02:28.487Z,13.15
2022-10-21T08:03:28.502Z,13.19
2022-10-21T08:04:28.471Z,13.13
2022-10-21T08:05:28.471Z,13.23
2022-10-21T08:06:28.490Z,13.22
2022-10-21T08:07:28.508Z,13.20
2022-10-21T08:08:28.499Z,13.15
2022-10-21T08:09:28.458Z,13.20
2022-10-21T08:10:28.417Z,13.13
2022-10-21T08:11:28.407Z,13.12
2022-10-21T08:12:28.419Z,13.13
2022-10-21T08:13:28.403Z,13.15
2022-10-21T08:14:28.404Z,13.13
2022-10-21T08:15:28.377Z,13.25
2022-10-21T08:16:28.442Z,13.30
2022-10-21T08:17:28.396Z,13.35
2022-10-21T08:18:28.384Z,13.16
2022-10-21T08:19:28.357Z,13.19
2022-10-21T08:20:28.339Z,13.15
2022-10-21T08:21:28.370Z,13.20
2022-10-21T08:22:28.338Z,13.18
2022-10-21T08:23:28.382Z,13.27
2022-10-21T08:24:28.304Z,13.22
2022-10-21T08:25:28.300Z,13.33
2022-10-21T08:26:28.338Z,13.35
2022-10-21T08:27:28.290Z,13.27
2022-10-21T08:28:28.293Z,13.33
2022-10-21T08:29:28.285Z,13.39
2022-10-21T08:30:28.268Z,13.54
2022-10-21T08:31:28.281Z,13.50
2022-10-21T08:32:28.268Z,13.49
2022-10-21T08:33:28.388Z,13.53
2022-10-21T08:34:28.301Z,13.47
2022-10-21T08:35:28.232Z,13.47
2022-10-21T08:36:28.225Z,13.56
2022-10-21T08:37:28.255Z,13.59
2022-10-21T08:38:28.269Z,13.62
2022-10-21T08:39:28.217Z,13.70
2022-10-21T08:40:28.258Z,13.71
2022-10-21T08:41:28.193Z,13.63
2022-10-21T08:42:28.173Z,13.57
2022-10-21T08:43:28.193Z,13.49
2022-10-21T08:44:28.181Z,13.54
2022-10-21T08:45:28.156Z,13.54
2022-10-21T08:46:28.159Z,13.53
2022-10-21T08:47:28.157Z,13.46
2022-10-21T08:48:28.137Z,13.46
2022-10-21T08:49:29.990Z,13.33
2022-10-21T08:50:28.102Z,13.28
2022-10-21T08:51:28.122Z,13.31
2022-10-21T08:52:28.113Z,13.38
2022-10-21T08:53:28.109Z,13.47
2022-10-21T08:54:28.083Z,13.33
2022-10-21T08:55:28.068Z,13.44
2022-10-21T08:56:28.098Z,13.52
2022-10-21T08:57:28.081Z,13.59
2022-10-21T08:58:28.101Z,13.71
2022-10-21T08:59:28.052Z,13.68
2022-10-21T09:00:28.026Z,13.85
2022-10-21T09:01:28.049Z,13.93
2022-10-21T09:02:28.011Z,13.75
2022-10-21T09:03:28.103Z,13.86
2022-10-21T09:04:28.015Z,13.93
2022-10-21T09:05:28.004Z,14.05
2022-10-21T09:06:27.994Z,14.10
2022-10-21T09:07:27.976Z,14.08
2022-10-21T09:08:28.110Z,14.08
2022-10-21T09:09:27.972Z,14.14
2022-10-21T09:10:27.946Z,14.23
2022-10-21T09:11:27.998Z,14.20
2022-10-21T09:12:27.966Z,14.18
2022-10-21T09:13:28.960Z,14.20
2022-10-21T09:14:27.998Z,14.32
2022-10-21T09:15:27.911Z,14.32
2022-10-21T09:16:27.982Z,14.35
2022-10-21T09:17:27.928Z,14.33
2022-10-21T09:18:27.968Z,14.40
2022-10-21T09:19:27.893Z,14.36
2022-10-21T09:20:27.875Z,14.35
2022-10-21T09:21:27.888Z,14.32
2022-10-21T09:22:35.152Z,14.37
2022-10-21T09:23:29.982Z,14.32
2022-10-21T09:24:27.877Z,14.35
2022-10-21T09:25:28.836Z,14.32
2022-10-21T09:26:30.173Z,14.35
2022-10-21T09:27:50.940Z,14.30
2022-10-21T09:28:29.837Z,14.33
2022-10-21T09:29:27.799Z,14.33
2022-10-21T09:30:27.794Z,14.26
2022-10-21T09:31:27.807Z,14.32
2022-10-21T09:32:27.799Z,14.26
2022-10-21T09:33:27.777Z,14.32
2022-10-21T09:34:27.835Z,14.35
2022-10-21T09:35:27.764Z,14.37
2022-10-21T09:36:27.761Z,14.36
2022-10-21T09:37:31.653Z,14.36
2022-10-21T09:38:29.741Z,14.37
2022-10-21T09:39:27.769Z,14.33
2022-10-21T09:40:27.724Z,14.41
2022-10-21T09:41:27.723Z,14.51
2022-10-21T09:42:47.279Z,14.40
2022-10-21T09:43:29.699Z,14.44
2022-10-21T09:44:27.716Z,14.47
2022-10-21T09:45:27.693Z,14.26
2022-10-21T09:46:27.693Z,14.18
2022-10-21T09:47:27.685Z,14.26
2022-10-21T09:48:28.832Z,14.03
2022-10-21T09:49:54.729Z,14.03
2022-10-21T09:50:29.655Z,14.10
2022-10-21T09:51:27.682Z,14.18
2022-10-21T09:52:27.640Z,14.17
2022-10-21T09:53:27.631Z,14.18
2022-10-21T09:54:27.642Z,14.11
2022-10-21T09:55:27.667Z,14.08
2022-10-21T09:56:27.593Z,14.22
2022-10-21T09:57:27.619Z,14.22
2022-10-21T09:58:27.600Z,14.20
2022-10-21T09:59:32.701Z,14.25
2022-10-21T10:00:29.566Z,14.35
2022-10-21T10:01:27.559Z,14.36
2022-10-21T10:02:27.609Z,14.40
2022-10-21T10:03:27.578Z,14.43
2022-10-21T10:04:27.556Z,14.48
2022-10-21T10:05:27.560Z,14.51
2022-10-21T10:06:27.515Z,14.54
2022-10-21T10:07:27.552Z,14.58
2022-10-21T10:08:27.525Z,14.55
2022-10-21T10:09:27.552Z,14.65
2022-10-21T10:10:27.494Z,14.60
2022-10-21T10:11:27.502Z,14.63
2022-10-21T10:12:27.522Z,14.55
2022-10-21T10:13:27.484Z,14.63
2022-10-21T10:14:27.508Z,14.48
2022-10-21T10:15:30.712Z,14.62
2022-10-21T10:16:27.472Z,14.55
2022-10-21T10:17:27.475Z,14.62
2022-10-21T10:18:27.427Z,14.55
2022-10-21T10:19:27.572Z,14.54
2022-10-21T10:20:27.435Z,14.60
2022-10-21T10:21:27.423Z,14.72
2022-10-21T10:22:27.433Z,14.65
2022-10-21T10:23:27.412Z,14.77
2022-10-21T10:24:27.415Z,14.79
2022-10-21T10:25:27.364Z,14.82
2022-10-21T10:26:27.374Z,14.84
2022-10-21T10:27:27.353Z,14.86
2022-10-21T10:28:27.351Z,14.84
2022-10-21T10:29:27.408Z,14.84
2022-10-21T10:30:27.355Z,14.88
2022-10-21T10:31:27.338Z,14.81
2022-10-21T10:32:27.363Z,14.84
2022-10-21T10:33:27.311Z,14.97
2022-10-21T10:34:27.335Z,14.88
2022-10-21T10:35:27.288Z,14.96
2022-10-21T10:36:27.321Z,14.96
2022-10-21T10:37:27.270Z,14.86
2022-10-21T10:38:27.256Z,14.99
2022-10-21T10:39:27.282Z,14.97
2022-10-21T10:40:27.253Z,15.02
2022-10-21T10:41:27.253Z,15.00
2022-10-21T10:42:27.321Z,15.07
2022-10-21T10:43:27.260Z,15.15
2022-10-21T10:44:27.263Z,15.21
2022-10-21T10:45:27.219Z,15.27
2022-10-21T10:46:27.213Z,15.35
2022-10-21T10:47:27.237Z,15.37
2022-10-21T10:48:27.184Z,15.37
2022-10-21T10:49:27.236Z,15.43
2022-10-21T10:50:27.183Z,15.47
2022-10-21T10:51:27.192Z,15.54
2022-10-21T10:52:27.189Z,15.51
2022-10-21T10:53:27.161Z,15.65
2022-10-21T10:54:27.171Z,15.59
2022-10-21T10:55:27.144Z,15.54
2022-10-21T10:56:27.202Z,15.58
2022-10-21T10:57:35.311Z,15.55
2022-10-21T10:58:28.564Z,15.57
2022-10-21T10:59:28.152Z,15.54
2022-10-21T11:00:27.097Z,15.55
2022-10-21T11:01:27.177Z,15.57
2022-10-21T11:02:27.083Z,15.62
2022-10-21T11:03:27.127Z,15.58
2022-10-21T11:04:27.114Z,15.57
2022-10-21T11:05:27.084Z,15.59
2022-10-21T11:06:27.078Z,15.57
2022-10-21T11:07:27.045Z,15.54
2022-10-21T11:08:29.697Z,15.61
2022-10-21T11:09:28.115Z,15.59
2022-10-21T11:10:28.018Z,15.57
2022-10-21T11:11:27.051Z,15.57
2022-10-21T11:12:27.024Z,15.58
2022-10-21T11:13:27.003Z,15.57
2022-10-21T11:14:27.100Z,15.58
2022-10-21T11:15:26.979Z,15.59
2022-10-21T11:16:26.971Z,15.54
2022-10-21T11:17:26.977Z,15.55
2022-10-21T11:18:26.980Z,15.61
2022-10-21T11:19:26.994Z,15.72
2022-10-21T11:20:27.946Z,15.67
2022-10-21T11:21:26.964Z,15.75
2022-10-21T11:22:26.953Z,15.72
2022-10-21T11:23:26.934Z,15.77
2022-10-21T11:24:26.930Z,15.72
2022-10-21T11:25:26.931Z,15.79
2022-10-21T11:26:26.912Z,15.80
2022-10-21T11:27:27.231Z,15.84
2022-10-21T11:28:26.905Z,15.77
2022-10-21T11:29:27.012Z,15.77
2022-10-21T11:30:26.944Z,15.84
2022-10-21T11:31:26.846Z,15.76
2022-10-21T11:32:26.841Z,15.75
2022-10-21T11:33:26.870Z,15.80
2022-10-21T11:34:26.866Z,15.86
2022-10-21T11:35:26.841Z,15.90
2022-10-21T11:36:26.822Z,15.80
2022-10-21T11:37:26.847Z,15.91
2022-10-21T11:38:26.842Z,15.92
2022-10-21T11:39:26.837Z,15.95
2022-10-21T11:40:26.779Z,16.02
2022-10-21T11:41:28.267Z,15.94
2022-10-21T11:42:26.796Z,16.10
2022-10-21T11:43:26.763Z,16.13
2022-10-21T11:44:29.334Z,16.16
2022-10-21T11:45:27.747Z,16.09
2022-10-21T11:46:26.841Z,16.23
2022-10-21T11:47:26.725Z,16.08
2022-10-21T11:48:26.742Z,16.23
2022-10-21T11:49:26.773Z,16.17
2022-10-21T11:50:26.742Z,16.21
2022-10-21T11:51:26.694Z,16.38
2022-10-21T11:52:26.684Z,16.26
2022-10-21T11:53:26.683Z,16.39
2022-10-21T11:54:26.701Z,16.32
2022-10-21T11:55:26.668Z,16.41
2022-10-21T11:56:26.648Z,16.42
2022-10-21T11:57:26.652Z,16.49
2022-10-21T11:58:26.636Z,16.56
2022-10-21T11:59:26.655Z,16.56
2022-10-21T12:00:26.674Z,16.64
2022-10-21T12:01:26.614Z,16.58
2022-10-21T12:02:26.784Z,16.49
2022-10-21T12:03:26.619Z,16.53
2022-10-21T12:04:26.591Z,16.57
2022-10-21T12:05:26.632Z,16.64
2022-10-21T12:06:26.599Z,16.71
2022-10-21T12:07:26.567Z,16.68
2022-10-21T12:09:27.551Z,16.68
2022-10-21T12:10:26.567Z,16.74
2022-10-21T12:11:26.565Z,16.66
2022-10-21T12:12:26.551Z,16.78
2022-10-21T12:13:26.544Z,16.75
2022-10-21T12:14:30.881Z,16.69
2022-10-21T12:15:27.551Z,16.66
2022-10-21T12:16:26.499Z,16.76
2022-10-21T12:17:26.555Z,16.78
2022-10-21T12:18:26.554Z,16.79
2022-10-21T12:19:26.512Z,16.84
2022-10-21T12:20:26.494Z,16.74
2022-10-21T12:21:26.461Z,16.83
2022-10-21T12:22:26.461Z,16.79
2022-10-21T12:23:26.461Z,16.74
2022-10-21T12:24:26.440Z,16.71
2022-10-21T12:25:26.475Z,16.87
2022-10-21T12:26:26.530Z,16.81
2022-10-21T12:27:26.420Z,16.83
2022-10-21T12:28:26.429Z,16.81
2022-10-21T12:29:26.402Z,16.94
2022-10-21T12:30:27.401Z,17.05
2022-10-21T12:31:27.395Z,17.05
2022-10-21T12:32:26.376Z,17.05
2022-10-21T12:33:26.361Z,17.15
2022-10-21T12:34:26.474Z,17.20
2022-10-21T12:35:26.398Z,17.16
2022-10-21T12:36:26.338Z,17.16
2022-10-21T12:37:26.355Z,17.06
2022-10-21T12:38:26.368Z,17.09
2022-10-21T12:39:26.317Z,17.09
2022-10-21T12:40:26.431Z,17.16
2022-10-21T12:41:26.305Z,17.27
2022-10-21T12:42:26.293Z,17.15
2022-10-21T12:43:26.300Z,17.23
2022-10-21T12:44:26.281Z,17.24
2022-10-21T12:45:26.311Z,17.26
2022-10-21T12:46:26.262Z,17.16
2022-10-21T12:47:26.284Z,17.12
2022-10-21T12:48:26.264Z,17.22
2022-10-21T12:49:26.284Z,17.23
2022-10-21T12:50:26.260Z,17.24
2022-10-21T12:51:26.271Z,17.23
2022-10-21T12:52:26.219Z,17.20
2022-10-21T12:53:26.222Z,17.26
2022-10-21T12:54:29.550Z,17.30
2022-10-21T12:55:26.248Z,17.30
2022-10-21T12:56:26.189Z,17.23
2022-10-21T12:57:26.206Z,17.26
2022-10-21T12:58:26.207Z,17.23
2022-10-21T12:59:26.194Z,17.30